Time;durP1;ratioP1;P1;durP2;ratioP2;P2;SDS_P1;SDS_P2;PMS_P1;PMS_P2;Temp;Humidity;BMP_temperature;BMP_pressure;BME280_temperature;BME280_humidity;BME280_pressure;Samples;Min_cycle;Max_cycle;Signal;HPM_P1;HPM_P2
2023/08/31 00:01:38;;;;;;;11.23;8.50;;;;;;;24.69;62.92;96282.84;5092993;28;20206;-84
2023/08/31 00:04:14;;;;;;;9.50;8.17;;;;;;;24.86;62.92;96294.19;5071793;28;20195;-78
2023/08/31 00:06:44;;;;;;;10.23;8.83;;;;;;;25.03;62.23;96301.88;5054960;28;20274;-73
2023/08/31 00:09:12;;;;;;;14.87;8.10;;;;;;;25.19;61.66;96305.38;5089108;28;20298;-84
2023/08/31 00:11:40;;;;;;;12.00;7.60;;;;;;;25.14;62.17;96311.25;5071531;28;20603;-83
2023/08/31 00:14:08;;;;;;;10.10;7.77;;;;;;;24.89;63.13;96312.41;5089769;28;20231;-85
2023/08/31 00:16:36;;;;;;;10.33;8.30;;;;;;;25.06;62.01;96297.22;5091734;28;20282;-78
2023/08/31 00:19:04;;;;;;;10.67;8.03;;;;;;;25.02;62.29;96294.06;5057633;28;20210;-78
2023/08/31 00:21:31;;;;;;;11.63;8.40;;;;;;;24.97;62.40;96315.00;5073173;28;20289;-75
2023/08/31 00:23:59;;;;;;;10.70;8.43;;;;;;;25.23;62.18;96319.94;5071064;28;20207;-84
2023/08/31 00:26:26;;;;;;;12.87;9.07;;;;;;;25.02;61.99;96294.06;5071184;28;20195;-85
2023/08/31 00:28:54;;;;;;;11.13;8.40;;;;;;;25.24;61.84;96327.72;5095202;28;20214;-80
2023/08/31 00:31:21;;;;;;;12.30;8.77;;;;;;;25.17;62.39;96321.47;5072929;28;20280;-77
2023/08/31 00:33:49;;;;;;;13.50;8.40;;;;;;;24.65;62.84;96331.88;5076575;28;20270;-83
2023/08/31 00:36:18;;;;;;;11.40;8.07;;;;;;;24.58;63.43;96327.47;5062705;28;20196;-85
2023/08/31 00:38:45;;;;;;;9.33;7.93;;;;;;;24.76;62.46;96322.75;5098201;28;20237;-82
2023/08/31 00:41:12;;;;;;;14.37;8.37;;;;;;;24.71;62.86;96311.84;5075866;28;20235;-74
2023/08/31 00:43:39;;;;;;;11.70;8.97;;;;;;;24.42;63.15;96327.53;5089156;28;20196;-77
2023/08/31 00:46:07;;;;;;;13.63;8.70;;;;;;;24.18;64.02;96329.28;5089249;28;20614;-75
2023/08/31 00:48:34;;;;;;;8.90;8.00;;;;;;;24.08;64.12;96323.38;5089348;28;20218;-77
2023/08/31 00:51:03;;;;;;;10.60;8.20;;;;;;;24.33;64.19;96310.88;5055476;28;20196;-78
2023/08/31 00:53:30;;;;;;;10.17;8.30;;;;;;;24.69;62.84;96321.78;5090572;28;20287;-75
2023/08/31 00:56:02;;;;;;;9.10;7.93;;;;;;;24.54;62.10;96302.31;5071650;28;20207;-73
2023/08/31 00:58:32;;;;;;;10.53;8.20;;;;;;;24.66;62.36;96327.41;5072272;28;20195;-76
2023/08/31 01:01:27;;;;;;;10.80;8.33;;;;;;;24.86;61.68;96323.34;5072518;28;20244;-84
2023/08/31 01:04:25;;;;;;;10.23;8.03;;;;;;;24.80;62.06;96334.63;5088744;28;20195;-81
2023/08/31 01:06:56;;;;;;;14.03;9.07;;;;;;;24.74;62.98;96319.44;5071223;28;20198;-84
2023/08/31 01:09:55;;;;;;;12.07;8.70;;;;;;;24.94;62.68;96341.84;5093159;28;20195;-83
2023/08/31 01:12:30;;;;;;;11.67;9.53;;;;;;;25.15;61.28;96339.38;5074442;28;20241;-75
2023/08/31 01:15:07;;;;;;;13.40;9.70;;;;;;;25.12;61.04;96339.75;5056970;28;20651;-83
2023/08/31 01:17:45;;;;;;;11.40;9.40;;;;;;;25.08;60.77;96340.28;5072667;28;20277;-79
2023/08/31 01:20:19;;;;;;;10.73;8.07;;;;;;;24.88;60.86;96331.94;5091821;28;20252;-79
2023/08/31 01:23:00;;;;;;;10.40;8.83;;;;;;;24.94;61.01;96355.06;5069457;28;20249;-76
2023/08/31 01:25:28;;;;;;;10.10;7.50;;;;;;;24.90;61.35;96338.72;5088215;28;20219;-73
2023/08/31 01:27:56;;;;;;;11.43;8.10;;;;;;;24.87;61.74;96356.78;5075306;28;20191;-81
2023/08/31 01:30:23;;;;;;;12.43;8.30;;;;;;;24.74;61.85;96353.88;5074121;28;20245;-77
2023/08/31 01:32:50;;;;;;;11.20;8.03;;;;;;;24.73;62.33;96357.50;5090160;28;20284;-74
2023/08/31 01:35:18;;;;;;;10.10;8.50;;;;;;;24.92;61.74;96352.63;5059660;28;20231;-79
2023/08/31 01:37:49;;;;;;;11.97;7.57;;;;;;;24.72;62.51;96363.78;5073983;28;20206;-84
2023/08/31 01:40:25;;;;;;;11.90;8.50;;;;;;;24.44;62.98;96358.13;5089290;28;20274;-81
2023/08/31 01:42:53;;;;;;;11.53;8.10;;;;;;;24.57;62.62;96365.50;5076690;28;20181;-74
2023/08/31 01:45:22;;;;;;;9.33;7.20;;;;;;;24.52;62.92;96358.13;5097179;28;20581;-77
2023/08/31 01:47:50;;;;;;;13.40;8.07;;;;;;;24.45;63.24;96367.72;5079449;28;20221;-78
2023/08/31 01:50:18;;;;;;;9.13;7.80;;;;;;;24.24;63.48;96349.78;5080968;28;20186;-77
2023/08/31 01:52:45;;;;;;;12.20;8.10;;;;;;;24.38;63.75;96371.25;5060106;28;20651;-78
2023/08/31 01:55:15;;;;;;;9.93;8.53;;;;;;;24.48;63.51;96375.34;5057402;28;20547;-81
2023/08/31 01:57:43;;;;;;;11.03;8.73;;;;;;;24.38;64.25;96377.34;5076809;28;20199;-80
2023/08/31 02:00:18;;;;;;;13.43;7.83;;;;;;;24.55;63.23;96378.94;5058952;28;20615;-77
2023/08/31 02:02:49;;;;;;;10.73;8.30;;;;;;;24.54;63.58;96384.41;5073210;28;20192;-81
2023/08/31 02:05:16;;;;;;;10.43;8.40;;;;;;;24.40;64.08;96383.28;5075278;28;20700;-84
2023/08/31 02:07:43;;;;;;;11.20;8.67;;;;;;;24.51;63.03;96379.44;5089534;28;20190;-84
2023/08/31 02:10:10;;;;;;;12.27;8.20;;;;;;;24.56;62.95;96385.06;5087396;28;20203;-85
2023/08/31 02:13:05;;;;;;;10.23;7.67;;;;;;;24.44;63.55;96386.44;5072143;28;20285;-84
2023/08/31 02:15:33;;;;;;;12.40;8.97;;;;;;;24.44;63.41;96381.13;5069417;28;20745;-87
2023/08/31 02:18:00;;;;;;;11.37;8.97;;;;;;;24.54;63.44;96387.06;5088632;28;20573;-83
2023/08/31 02:20:27;;;;;;;11.57;9.00;;;;;;;24.04;65.19;96377.63;5074245;28;20221;-83
2023/08/31 02:22:55;;;;;;;11.27;8.47;;;;;;;24.07;65.49;96379.91;5073608;28;20251;-87
2023/08/31 02:25:22;;;;;;;12.23;8.90;;;;;;;24.16;64.79;96381.56;5091652;28;20186;-82
2023/08/31 02:27:50;;;;;;;10.70;8.63;;;;;;;24.19;64.17;96389.13;5091548;28;20681;-85
2023/08/31 02:30:17;;;;;;;11.60;8.63;;;;;;;24.20;64.05;96382.88;5076491;28;20210;-78
2023/08/31 02:32:44;;;;;;;11.30;8.60;;;;;;;24.23;63.68;96384.34;5088808;28;20689;-85
2023/08/31 02:35:14;;;;;;;14.37;8.57;;;;;;;24.25;63.58;96377.88;5071139;28;20297;-73
2023/08/31 02:37:41;;;;;;;11.50;9.07;;;;;;;24.31;62.85;96373.75;5055755;28;20209;-81
2023/08/31 02:40:11;;;;;;;10.20;8.03;;;;;;;24.37;62.36;96393.41;5086718;28;20242;-79
2023/08/31 02:42:39;;;;;;;8.93;8.03;;;;;;;24.16;63.69;96393.94;5071062;28;20190;-86
2023/08/31 02:45:06;;;;;;;10.30;8.30;;;;;;;24.11;64.00;96396.31;5086685;28;20694;-78
2023/08/31 02:47:34;;;;;;;12.20;8.73;;;;;;;24.07;63.74;96393.16;5069131;28;20189;-85
2023/08/31 02:50:01;;;;;;;10.00;8.03;;;;;;;24.03;64.13;96389.19;5069337;28;20219;-77
2023/08/31 02:52:30;;;;;;;13.70;8.43;;;;;;;23.98;64.54;96399.44;5071128;28;20666;-73
2023/08/31 02:54:57;;;;;;;10.23;8.27;;;;;;;23.46;66.84;96390.22;5073012;28;20775;-80
2023/08/31 02:57:24;;;;;;;13.17;9.03;;;;;;;23.34;67.21;96402.94;5078381;28;20223;-75
2023/08/31 02:59:52;;;;;;;27.87;10.33;;;;;;;23.42;66.99;96395.00;5098874;28;20185;-80
2023/08/31 03:02:19;;;;;;;14.27;8.83;;;;;;;23.13;67.83;96393.78;5079466;28;20190;-82
2023/08/31 03:04:47;;;;;;;12.57;8.47;;;;;;;22.99;68.66;96394.41;5078450;28;20181;-81
2023/08/31 03:07:15;;;;;;;15.20;8.17;;;;;;;23.01;68.07;96405.66;5060554;28;20200;-76
2023/08/31 03:09:49;;;;;;;14.07;9.23;;;;;;;22.87;68.29;96385.97;5075986;28;20258;-84
2023/08/31 03:12:16;;;;;;;9.40;7.97;;;;;;;23.05;67.25;96386.69;5072839;28;20246;-72
2023/08/31 03:14:44;;;;;;;14.53;9.27;;;;;;;22.98;67.87;96380.38;5090403;28;20212;-72
2023/08/31 03:17:11;;;;;;;13.73;8.93;;;;;;;23.16;66.98;96390.81;5073969;28;20220;-75
2023/08/31 03:19:39;;;;;;;11.53;9.50;;;;;;;23.37;67.03;96402.59;5069322;28;20205;-71
2023/08/31 03:22:07;;;;;;;14.60;9.10;;;;;;;23.20;67.68;96400.06;5071760;28;20247;-72
2023/08/31 03:24:35;;;;;;;16.03;9.90;;;;;;;23.35;67.46;96407.22;5072859;28;20191;-72
2023/08/31 03:27:03;;;;;;;10.83;8.70;;;;;;;23.27;67.03;96406.34;5051884;28;20647;-72
2023/08/31 03:29:31;;;;;;;12.53;9.17;;;;;;;23.12;67.94;96421.19;5068549;28;20193;-72
2023/08/31 03:32:01;;;;;;;13.80;9.70;;;;;;;22.67;69.55;96417.09;5061865;28;20199;-76
2023/08/31 03:34:31;;;;;;;14.33;9.23;;;;;;;22.37;70.89;96428.16;5092457;28;20224;-73
2023/08/31 03:36:59;;;;;;;11.10;8.77;;;;;;;21.93;72.58;96407.31;5110658;28;20278;-77
2023/08/31 03:39:26;;;;;;;11.53;9.03;;;;;;;22.03;73.13;96429.13;5075304;28;20190;-72
2023/08/31 03:41:53;;;;;;;18.87;10.33;;;;;;;21.75;74.08;96425.75;5109995;28;20582;-75
2023/08/31 03:44:21;;;;;;;14.60;9.80;;;;;;;21.81;74.15;96414.59;5072150;28;20201;-77
2023/08/31 03:46:49;;;;;;;11.43;10.00;;;;;;;21.79;74.38;96427.09;5051190;28;20329;-72
2023/08/31 03:49:16;;;;;;;12.40;10.30;;;;;;;21.56;74.58;96405.66;5071451;28;20274;-73
2023/08/31 03:51:44;;;;;;;15.03;10.00;;;;;;;21.70;74.97;96435.94;5071360;28;20215;-71
2023/08/31 03:54:12;;;;;;;11.53;9.93;;;;;;;21.61;75.38;96434.22;5054849;28;20214;-76
2023/08/31 03:56:40;;;;;;;13.03;11.63;;;;;;;21.61;75.51;96440.31;5070978;28;20190;-71
2023/08/31 03:59:08;;;;;;;15.47;11.70;;;;;;;21.49;76.17;96443.34;5071076;28;20193;-71
2023/08/31 04:01:35;;;;;;;15.63;11.03;;;;;;;21.50;76.17;96443.19;5071209;28;20198;-71
2023/08/31 04:04:03;;;;;;;17.53;10.50;;;;;;;21.71;75.67;96434.94;5088916;28;20189;-73
2023/08/31 04:06:31;;;;;;;14.80;10.50;;;;;;;21.76;75.29;96435.31;5070556;28;20276;-82
2023/08/31 04:08:58;;;;;;;17.43;11.13;;;;;;;21.79;75.14;96449.03;5089187;28;20296;-73
2023/08/31 04:11:26;;;;;;;14.50;10.50;;;;;;;21.67;75.73;96447.59;5081964;28;20229;-73
2023/08/31 04:13:54;;;;;;;15.77;11.63;;;;;;;21.43;76.23;96449.22;5109772;28;20210;-82
2023/08/31 04:16:21;;;;;;;14.47;10.50;;;;;;;21.59;75.44;96467.78;5074440;28;20217;-78
2023/08/31 04:18:51;;;;;;;15.10;10.47;;;;;;;21.90;74.38;96460.34;5091328;28;20182;-76
2023/08/31 04:21:19;;;;;;;15.83;10.40;;;;;;;22.54;72.37;96471.28;5092056;28;20236;-77
2023/08/31 04:23:46;;;;;;;12.13;10.00;;;;;;;22.67;70.92;96475.19;5090531;28;20563;-72
2023/08/31 04:26:13;;;;;;;14.57;9.80;;;;;;;22.93;70.50;96474.28;5091827;28;20614;-81
2023/08/31 04:28:42;;;;;;;11.57;9.90;;;;;;;22.80;70.51;96474.75;5109593;28;20256;-78
2023/08/31 04:31:10;;;;;;;15.20;10.40;;;;;;;22.61;70.99;96481.09;5109299;28;20205;-77
2023/08/31 04:33:39;;;;;;;13.47;10.20;;;;;;;22.44;71.28;96474.03;5090708;28;20221;-75
2023/08/31 04:36:07;;;;;;;15.10;11.37;;;;;;;22.46;71.24;96477.34;5108952;28;20220;-74
2023/08/31 04:38:34;;;;;;;15.10;10.90;;;;;;;22.43;71.65;96484.75;5109086;28;20716;-77
2023/08/31 04:41:02;;;;;;;16.77;11.23;;;;;;;22.36;71.84;96486.38;5108598;28;20230;-79
2023/08/31 04:43:31;;;;;;;14.97;11.27;;;;;;;22.65;70.88;96487.72;5092169;28;20205;-76
2023/08/31 04:45:58;;;;;;;19.00;11.53;;;;;;;23.15;69.42;96494.84;5110572;28;20191;-72
2023/08/31 04:48:25;;;;;;;13.70;10.10;;;;;;;23.36;68.21;96482.88;5109515;28;20245;-74
2023/08/31 04:50:57;;;;;;;13.60;9.97;;;;;;;23.53;67.73;96491.66;5076198;28;20192;-75
2023/08/31 04:53:25;;;;;;;16.23;11.13;;;;;;;23.84;66.78;96492.69;5090522;28;20202;-73
2023/08/31 04:55:53;;;;;;;15.90;10.57;;;;;;;23.93;66.25;96499.63;5108749;28;20218;-80
2023/08/31 04:58:20;;;;;;;17.13;10.67;;;;;;;23.90;66.50;96509.72;5089949;28;20683;-81
2023/08/31 05:00:47;;;;;;;20.30;9.80;;;;;;;24.12;66.04;96498.50;5108764;28;20187;-73
2023/08/31 05:03:15;;;;;;;15.13;9.93;;;;;;;24.30;64.62;96496.47;5072970;28;20745;-78
2023/08/31 05:05:43;;;;;;;20.43;11.03;;;;;;;24.63;63.37;96518.41;5108102;28;20192;-77
2023/08/31 05:08:11;;;;;;;16.27;10.27;;;;;;;24.85;62.95;96520.41;5108184;28;20274;-75
2023/08/31 05:10:39;;;;;;;11.67;9.70;;;;;;;24.99;62.68;96517.03;5073957;28;20672;-77
2023/08/31 05:13:06;;;;;;;13.27;10.10;;;;;;;24.44;63.27;96502.94;5090039;28;20196;-72
2023/08/31 05:15:34;;;;;;;13.77;11.20;;;;;;;24.63;63.61;96523.72;5071740;28;21045;-75
2023/08/31 05:18:01;;;;;;;17.30;11.00;;;;;;;24.79;63.64;96527.19;5108608;28;20184;-75
2023/08/31 05:20:29;;;;;;;15.93;10.47;;;;;;;25.03;62.40;96531.59;5108318;28;20259;-77
2023/08/31 05:22:57;;;;;;;20.50;11.83;;;;;;;25.09;62.26;96538.84;5089911;28;20484;-75
2023/08/31 05:25:25;;;;;;;14.83;10.73;;;;;;;25.18;61.70;96529.03;5089920;28;20656;-78
2023/08/31 05:27:54;;;;;;;16.77;11.00;;;;;;;25.24;62.27;96542.44;5107847;28;20194;-75
2023/08/31 05:30:22;;;;;;;16.27;11.47;;;;;;;25.21;62.77;96548.06;5107772;28;20198;-76
2023/08/31 05:32:49;;;;;;;15.23;11.77;;;;;;;24.89;62.96;96551.66;5107567;28;20592;-76
2023/08/31 05:35:17;;;;;;;17.07;11.07;;;;;;;24.87;62.91;96524.50;5089486;28;20222;-75
2023/08/31 05:37:44;;;;;;;16.43;11.60;;;;;;;24.81;63.19;96553.53;5107135;28;20294;-81
2023/08/31 05:40:11;;;;;;;15.23;9.57;;;;;;;24.63;64.05;96544.91;5107001;28;20306;-76
2023/08/31 05:42:39;;;;;;;16.70;10.87;;;;;;;24.88;63.89;96546.53;5088868;28;20194;-79
2023/08/31 05:45:07;;;;;;;13.00;10.87;;;;;;;24.32;65.37;96536.03;5089574;28;20277;-75
2023/08/31 05:47:34;;;;;;;14.23;10.30;;;;;;;23.98;66.73;96544.94;5107624;28;20235;-72
2023/08/31 05:50:03;;;;;;;13.77;10.50;;;;;;;24.09;66.10;96526.09;5053127;28;20199;-76
2023/08/31 05:52:30;;;;;;;13.73;10.23;;;;;;;24.36;65.68;96532.84;5068940;28;20191;-72
2023/08/31 05:54:57;;;;;;;18.97;10.20;;;;;;;24.34;65.46;96529.56;5086702;28;20208;-80
2023/08/31 05:57:27;;;;;;;13.00;10.37;;;;;;;24.31;64.71;96515.84;5068469;28;20196;-78
2023/08/31 05:59:54;;;;;;;11.67;9.33;;;;;;;24.44;63.43;96530.19;5051621;28;20230;-76
2023/08/31 06:02:21;;;;;;;11.60;8.77;;;;;;;24.58;63.83;96536.66;5087859;28;20186;-75
2023/08/31 06:04:49;;;;;;;14.27;9.43;;;;;;;25.08;62.91;96534.53;5087287;28;20195;-73
2023/08/31 06:07:16;;;;;;;13.10;9.17;;;;;;;25.35;61.45;96541.22;5089122;28;20231;-77
2023/08/31 06:09:44;;;;;;;15.20;9.33;;;;;;;25.70;59.99;96546.84;5089616;28;20571;-84
2023/08/31 06:12:11;;;;;;;11.27;9.00;;;;;;;26.09;59.56;96548.63;5068553;28;20218;-75
2023/08/31 06:14:39;;;;;;;12.67;8.37;;;;;;;25.87;58.21;96546.72;5069200;28;20271;-78
2023/08/31 06:17:11;;;;;;;12.87;8.20;;;;;;;26.31;58.32;96537.97;5051988;28;20243;-76
2023/08/31 06:19:40;;;;;;;12.03;8.80;;;;;;;26.27;57.21;96543.81;5068855;28;20185;-74
2023/08/31 06:22:07;;;;;;;13.63;8.50;;;;;;;26.30;56.78;96528.34;5088422;28;20218;-80
2023/08/31 06:24:35;;;;;;;13.47;8.70;;;;;;;26.32;56.56;96544.09;5088350;28;20279;-79
2023/08/31 06:27:03;;;;;;;13.77;8.33;;;;;;;26.52;56.02;96548.72;5068944;28;20188;-77
2023/08/31 06:29:30;;;;;;;9.90;8.03;;;;;;;26.71;55.45;96530.63;5086618;28;20679;-74
2023/08/31 06:31:58;;;;;;;15.80;8.57;;;;;;;26.97;55.31;96544.31;5068489;28;20194;-75
2023/08/31 06:34:25;;;;;;;13.73;8.80;;;;;;;27.36;53.98;96548.34;5086502;28;20184;-73
2023/08/31 06:36:52;;;;;;;10.70;8.00;;;;;;;27.28;53.37;96547.59;5068293;28;20699;-79
2023/08/31 06:39:20;;;;;;;15.07;8.83;;;;;;;27.61;53.61;96558.66;5052669;28;20188;-76
2023/08/31 06:41:47;;;;;;;14.50;8.80;;;;;;;27.73;52.50;96552.66;5086873;28;20279;-82
2023/08/31 06:44:17;;;;;;;11.77;7.43;;;;;;;27.83;52.52;96557.69;5069962;28;20211;-81
2023/08/31 06:46:44;;;;;;;9.37;8.07;;;;;;;28.07;51.67;96562.66;5069487;28;20197;-75
2023/08/31 06:49:14;;;;;;;12.27;7.43;;;;;;;28.08;50.61;96564.31;5087573;28;20185;-73
2023/08/31 06:51:42;;;;;;;15.63;9.80;;;;;;;28.19;50.99;96561.97;5087144;28;20197;-75
2023/08/31 06:54:10;;;;;;;13.47;7.40;;;;;;;28.11;50.07;96545.28;5088300;28;20189;-76
2023/08/31 06:56:38;;;;;;;12.27;8.23;;;;;;;28.33;50.24;96554.09;5035745;28;20281;-77
2023/08/31 06:59:06;;;;;;;12.87;8.20;;;;;;;28.29;48.92;96544.84;5055614;28;20577;-75
2023/08/31 07:01:41;;;;;;;11.73;7.73;;;;;;;28.43;48.95;96542.09;5090256;28;20220;-85
2023/08/31 07:04:09;;;;;;;10.60;7.47;;;;;;;28.68;48.29;96548.69;5068918;28;20216;-77
2023/08/31 07:06:38;;;;;;;11.77;6.73;;;;;;;28.72;47.35;96563.28;5071154;28;20258;-82
2023/08/31 07:09:10;;;;;;;9.47;6.50;;;;;;;28.65;47.61;96556.22;5036581;28;20197;-87
2023/08/31 07:11:37;;;;;;;14.93;7.23;;;;;;;28.80;47.40;96564.97;5053660;28;20602;-77
2023/08/31 07:14:04;;;;;;;10.20;6.43;;;;;;;29.08;46.15;96560.41;5087453;28;20288;-83
2023/08/31 07:16:32;;;;;;;9.27;6.80;;;;;;;29.21;45.89;96560.53;5086062;28;20219;-74
2023/08/31 07:19:00;;;;;;;12.40;7.23;;;;;;;29.25;45.95;96564.44;5069212;28;20204;-84
2023/08/31 07:21:28;;;;;;;11.23;6.57;;;;;;;29.11;44.80;96553.88;5069160;28;20200;-74
2023/08/31 07:23:55;;;;;;;9.37;6.13;;;;;;;29.23;43.86;96552.31;5050423;28;20193;-78
2023/08/31 07:26:22;;;;;;;10.30;6.50;;;;;;;29.48;43.14;96558.81;5068964;28;20605;-85
2023/08/31 07:28:50;;;;;;;8.43;5.90;;;;;;;29.33;42.96;96556.28;5068062;28;20199;-80
2023/08/31 07:31:19;;;;;;;9.63;5.83;;;;;;;29.45;43.52;96576.03;5067190;28;20211;-75
2023/08/31 07:33:47;;;;;;;13.00;6.53;;;;;;;29.61;42.84;96580.22;5085015;28;20191;-74
2023/08/31 07:36:15;;;;;;;12.27;6.90;;;;;;;29.75;43.73;96573.94;5085766;28;20231;-78
2023/08/31 07:38:43;;;;;;;10.90;7.57;;;;;;;29.86;43.15;96584.06;5087842;28;20628;-76
2023/08/31 07:41:11;;;;;;;10.43;6.23;;;;;;;29.73;43.43;96574.16;5089281;28;20227;-74
2023/08/31 07:43:39;;;;;;;8.27;6.37;;;;;;;29.76;42.14;96562.22;5070585;28;20697;-75
2023/08/31 07:46:21;;;;;;;11.00;7.37;;;;;;;30.01;42.54;96579.34;5088754;28;20196;-73
2023/08/31 07:48:50;;;;;;;11.60;7.30;;;;;;;30.15;42.42;96569.53;5089558;28;20613;-76
2023/08/31 07:51:22;;;;;;;8.13;6.10;;;;;;;30.32;41.21;96581.47;5058953;28;20189;-75
2023/08/31 07:53:57;;;;;;;11.37;5.63;;;;;;;30.34;41.33;96580.25;5095771;28;20192;-77
2023/08/31 07:56:29;;;;;;;7.77;6.30;;;;;;;29.81;41.43;96575.81;5073137;28;20276;-74
2023/08/31 07:58:58;;;;;;;9.77;6.30;;;;;;;29.80;41.95;96550.09;5073793;28;20229;-76
2023/08/31 08:01:25;;;;;;;7.67;6.03;;;;;;;29.82;40.81;96572.09;5071016;28;20228;-76
2023/08/31 08:03:53;;;;;;;7.73;6.23;;;;;;;29.71;41.28;96564.66;5088923;28;20678;-75
2023/08/31 08:06:21;;;;;;;8.70;6.27;;;;;;;29.53;42.34;96561.72;5071001;28;20250;-81
2023/08/31 08:08:50;;;;;;;6.57;5.83;;;;;;;29.72;41.27;96569.81;5034032;28;20670;-80
2023/08/31 08:11:18;;;;;;;7.70;5.70;;;;;;;29.75;40.60;96568.59;5068597;28;20238;-83
2023/08/31 08:13:46;;;;;;;6.87;5.60;;;;;;;29.96;40.97;96568.47;5068759;28;20218;-75
2023/08/31 08:16:14;;;;;;;10.17;7.10;;;;;;;30.04;41.20;96568.28;5070927;28;20212;-79
2023/08/31 08:18:41;;;;;;;9.07;6.30;;;;;;;30.22;41.74;96573.84;5052334;28;20197;-81
2023/08/31 08:21:09;;;;;;;11.37;6.67;;;;;;;30.24;39.94;96560.28;5073404;28;20189;-77
2023/08/31 08:23:37;;;;;;;7.70;5.40;;;;;;;30.29;40.39;96568.50;5054402;28;20192;-79
2023/08/31 08:26:10;;;;;;;12.07;9.00;;;;;;;30.42;40.93;96579.22;5071069;28;20705;-75
2023/08/31 08:28:40;;;;;;;6.87;5.90;;;;;;;29.98;40.89;96562.91;5037031;28;21257;-75
2023/08/31 08:31:11;;;;;;;6.60;5.50;;;;;;;29.88;41.62;96565.16;5037731;28;20226;-74
2023/08/31 08:33:42;;;;;;;7.60;5.83;;;;;;;29.63;41.17;96568.34;5052606;28;20214;-79
2023/08/31 08:36:09;;;;;;;9.17;5.87;;;;;;;29.87;40.90;96563.47;5056645;28;20303;-78
2023/08/31 08:38:37;;;;;;;8.63;5.40;;;;;;;29.61;40.02;96564.22;5070717;28;20227;-76
2023/08/31 08:41:06;;;;;;;6.50;5.57;;;;;;;29.64;40.48;96553.94;5090432;28;20315;-80
2023/08/31 08:43:35;;;;;;;7.37;6.67;;;;;;;29.79;39.87;96551.16;5093670;28;20197;-77
2023/08/31 08:46:06;;;;;;;13.07;9.67;;;;;;;29.64;40.93;96550.44;5072553;28;20564;-76
2023/08/31 08:48:37;;;;;;;13.50;6.67;;;;;;;29.81;40.44;96564.28;5069871;28;20212;-78
2023/08/31 08:51:05;;;;;;;9.80;5.70;;;;;;;29.58;41.10;96569.94;5069404;28;20274;-76
2023/08/31 08:53:32;;;;;;;9.70;5.97;;;;;;;29.45;40.43;96569.91;5089281;28;20212;-81
2023/08/31 08:55:59;;;;;;;8.73;5.80;;;;;;;29.36;40.42;96558.56;5087425;28;20227;-80
2023/08/31 08:58:31;;;;;;;7.13;5.67;;;;;;;29.16;43.55;96560.28;5088807;28;20279;-75
2023/08/31 09:00:59;;;;;;;6.33;5.33;;;;;;;28.72;45.30;96563.28;5088318;28;20192;-76
2023/08/31 09:03:27;;;;;;;5.87;5.27;;;;;;;28.39;46.36;96567.47;5071004;28;20268;-78
2023/08/31 09:05:55;;;;;;;10.83;5.70;;;;;;;28.26;47.53;96570.03;5069574;28;20203;-79
2023/08/31 09:08:27;;;;;;;11.50;6.73;;;;;;;28.11;48.31;96564.75;5052542;28;20263;-74
2023/08/31 09:10:59;;;;;;;6.70;5.70;;;;;;;28.03;49.08;96580.03;5069753;28;20196;-73
2023/08/31 09:13:33;;;;;;;8.30;5.80;;;;;;;27.85;49.55;96579.59;5087688;28;20197;-77
2023/08/31 09:16:01;;;;;;;7.23;5.87;;;;;;;27.51;50.79;96566.94;5072186;28;20220;-77
2023/08/31 09:18:32;;;;;;;8.97;6.13;;;;;;;27.33;51.47;96585.91;5052100;28;20279;-73
2023/08/31 09:21:01;;;;;;;9.07;6.13;;;;;;;27.11;52.88;96597.47;5068639;28;20229;-74
2023/08/31 09:23:28;;;;;;;9.33;6.00;;;;;;;27.13;52.39;96590.16;5052795;28;20275;-76
2023/08/31 09:25:56;;;;;;;7.63;5.77;;;;;;;27.07;52.52;96587.38;5069319;28;20208;-76
2023/08/31 09:28:27;;;;;;;8.50;5.70;;;;;;;27.07;52.87;96596.19;5052596;28;20614;-77
2023/08/31 09:31:08;;;;;;;6.87;5.50;;;;;;;26.61;53.70;96578.69;5086799;28;20226;-74
2023/08/31 09:33:36;;;;;;;7.43;5.40;;;;;;;26.32;54.42;96565.31;5069343;28;20185;-77
2023/08/31 09:36:07;;;;;;;7.77;5.70;;;;;;;26.35;53.93;96579.09;5087156;28;20212;-76
2023/08/31 09:38:43;;;;;;;7.10;5.60;;;;;;;26.62;52.19;96583.00;5089914;28;20193;-73
2023/08/31 09:41:11;;;;;;;6.37;5.10;;;;;;;26.95;49.60;96576.41;5040102;28;20589;-72
2023/08/31 09:43:39;;;;;;;6.37;4.43;;;;;;;27.29;46.28;96573.16;5073588;28;20219;-75
2023/08/31 09:46:08;;;;;;;6.80;4.73;;;;;;;27.46;46.01;96571.16;5092019;28;20197;-79
2023/08/31 09:48:38;;;;;;;5.27;4.73;;;;;;;27.69;45.16;96575.34;5087775;28;20288;-81
2023/08/31 09:51:09;;;;;;;10.87;5.57;;;;;;;27.98;43.66;96559.31;5069029;28;20192;-74
2023/08/31 09:53:41;;;;;;;7.20;4.27;;;;;;;28.39;42.79;96564.81;5052897;28;20234;-78
2023/08/31 09:56:13;;;;;;;6.63;4.70;;;;;;;28.63;42.52;96563.59;5070046;28;20204;-76
2023/08/31 09:58:40;;;;;;;8.73;4.80;;;;;;;28.54;41.71;96509.56;5070698;28;20212;-82
2023/08/31 10:01:07;;;;;;;5.37;4.60;;;;;;;28.81;42.35;96562.09;5086006;28;20218;-76
2023/08/31 10:03:51;;;;;;;5.43;4.40;;;;;;;29.06;41.22;96567.78;5086813;28;20261;-75
2023/08/31 10:06:21;;;;;;;7.03;4.07;;;;;;;29.05;41.00;96554.66;5087005;28;20601;-73
2023/08/31 10:08:48;;;;;;;6.30;4.17;;;;;;;29.07;40.80;96576.63;5051976;28;20294;-78
2023/08/31 10:11:17;;;;;;;7.07;4.63;;;;;;;29.26;40.72;96565.28;5087126;28;20258;-79
2023/08/31 10:13:47;;;;;;;5.27;4.13;;;;;;;29.05;40.29;96568.00;5086446;28;20808;-77
2023/08/31 10:16:18;;;;;;;6.03;4.70;;;;;;;29.32;40.51;96559.16;5069063;28;20242;-81
2023/08/31 10:18:47;;;;;;;7.67;4.10;;;;;;;29.54;39.70;96569.50;5086588;28;20283;-76
2023/08/31 10:21:19;;;;;;;7.23;4.60;;;;;;;29.32;39.24;96559.16;5067436;28;20686;-78
2023/08/31 10:23:47;;;;;;;6.60;4.07;;;;;;;29.48;39.01;96575.66;5051757;28;20640;-77
2023/08/31 10:26:31;;;;;;;6.13;4.40;;;;;;;29.15;39.18;96525.81;5068387;28;20295;-75
2023/08/31 10:29:00;;;;;;;5.23;4.07;;;;;;;29.43;38.79;96561.28;5087067;28;20246;-79
2023/08/31 10:31:34;;;;;;;5.00;4.00;;;;;;;29.64;38.07;96580.63;5085044;28;20701;-82
2023/08/31 10:34:09;;;;;;;6.43;4.77;;;;;;;29.72;37.00;96584.97;5083238;28;20188;-76
2023/08/31 10:36:45;;;;;;;5.67;4.37;;;;;;;29.83;37.35;96584.44;5064471;28;20812;-79
2023/08/31 10:39:15;;;;;;;6.13;4.03;;;;;;;29.67;36.46;96539.38;5082012;28;20375;-77
2023/08/31 10:41:56;;;;;;;7.30;3.90;;;;;;;29.85;35.45;96571.72;5082172;28;20219;-75
2023/08/31 10:44:30;;;;;;;5.97;4.07;;;;;;;29.74;35.45;96566.94;5067442;28;20188;-77
2023/08/31 10:47:04;;;;;;;5.87;3.90;;;;;;;29.90;36.10;96590.63;5067832;28;20195;-74
2023/08/31 10:49:32;;;;;;;5.33;3.73;;;;;;;29.87;35.91;96598.19;5047784;28;20268;-73
2023/08/31 10:52:17;;;;;;;4.40;3.70;;;;;;;29.79;36.48;96598.38;5040211;28;20217;-80
2023/08/31 10:54:55;;;;;;;5.93;3.40;;;;;;;29.87;36.37;96600.88;5050154;28;20236;-78
2023/08/31 10:57:35;;;;;;;8.93;5.30;;;;;;;29.94;37.91;96607.91;5047771;28;20674;-73
2023/08/31 11:00:04;;;;;;;8.90;4.90;;;;;;;29.92;37.59;96585.09;5066759;28;20676;-82
2023/08/31 11:02:35;;;;;;;5.30;4.13;;;;;;;30.12;38.79;96616.16;5047424;28;20587;-79
2023/08/31 11:05:09;;;;;;;7.33;4.70;;;;;;;29.95;41.78;96616.72;5047501;28;20210;-79
2023/08/31 11:07:40;;;;;;;8.50;5.50;;;;;;;29.83;45.23;96599.63;5066807;28;20247;-75
2023/08/31 11:10:17;;;;;;;8.00;5.73;;;;;;;29.03;47.15;96597.53;5064217;28;20197;-79
2023/08/31 11:12:55;;;;;;;7.07;5.40;;;;;;;28.50;48.83;96601.59;5033832;28;20193;-78
2023/08/31 11:15:26;;;;;;;9.23;5.40;;;;;;;28.71;48.03;96606.94;5052292;28;20866;-77
2023/08/31 11:17:56;;;;;;;7.27;6.10;;;;;;;28.37;48.13;96552.69;5053262;28;20237;-80
2023/08/31 11:20:27;;;;;;;7.77;4.80;;;;;;;28.94;47.93;96615.53;5036107;28;20535;-81
2023/08/31 11:22:56;;;;;;;8.83;5.20;;;;;;;28.90;46.73;96606.25;5069524;28;20657;-79
2023/08/31 11:25:24;;;;;;;8.70;5.73;;;;;;;29.12;46.48;96606.22;5040123;28;20201;-77
2023/08/31 11:28:09;;;;;;;10.43;5.50;;;;;;;29.18;45.58;96594.78;5092313;28;20269;-78
2023/08/31 11:30:37;;;;;;;9.90;5.63;;;;;;;29.43;45.32;96596.75;5089602;28;20196;-75
2023/08/31 11:33:08;;;;;;;6.17;5.07;;;;;;;29.73;44.63;96590.16;5090707;28;20197;-76
2023/08/31 11:35:38;;;;;;;6.83;5.17;;;;;;;30.01;44.04;96598.03;5056955;28;20223;-75
2023/08/31 11:38:05;;;;;;;6.67;4.90;;;;;;;30.24;44.06;96587.81;5074829;28;20719;-75